Time;durP1;ratioP1;P1;durP2;ratioP2;P2;SDS_P1;SDS_P2;PMS_P1;PMS_P2;Temp;Humidity;BMP_temperature;BMP_pressure;BME280_temperature;BME280_humidity;BME280_pressure;Samples;Min_cycle;Max_cycle;Signal;HPM_P1;HPM_P2
2022/11/12 00:02:13;;;;;;;53.42;29.58;;;;;;;7.51;100.00;101999.91;5106945;28;20045;-70
2022/11/12 00:04:39;;;;;;;51.58;28.08;;;;;;;7.55;100.00;101990.81;5108851;28;20027;-69
2022/11/12 00:07:04;;;;;;;48.00;30.35;;;;;;;7.55;100.00;101977.47;5108440;28;20121;-70
2022/11/12 00:09:30;;;;;;;47.28;29.45;;;;;;;7.64;100.00;101990.38;5108694;28;20059;-70
2022/11/12 00:11:55;;;;;;;45.10;28.25;;;;;;;7.66;100.00;101980.44;5108405;28;20116;-70
2022/11/12 00:14:20;;;;;;;54.40;30.23;;;;;;;7.75;100.00;101988.88;5108816;28;20028;-70
2022/11/12 00:16:46;;;;;;;47.33;30.13;;;;;;;7.76;100.00;101987.06;5107133;28;20026;-70
2022/11/12 00:19:11;;;;;;;47.70;28.95;;;;;;;7.81;100.00;101977.91;5108854;28;20031;-70
2022/11/12 00:21:37;;;;;;;52.08;29.88;;;;;;;7.84;100.00;101983.06;5106372;28;20043;-70
2022/11/12 00:24:02;;;;;;;46.28;28.75;;;;;;;7.88;100.00;101986.47;5093373;28;20499;-69
2022/11/12 00:26:28;;;;;;;47.70;29.55;;;;;;;7.90;100.00;101988.09;5104171;28;20047;-71
2022/11/12 00:28:54;;;;;;;46.03;28.60;;;;;;;7.89;100.00;101978.38;5108598;28;20023;-71
2022/11/12 00:31:20;;;;;;;49.13;27.50;;;;;;;7.95;100.00;101970.06;5109113;28;20394;-70
2022/11/12 00:33:45;;;;;;;45.67;28.83;;;;;;;8.02;100.00;101968.78;5109023;28;20038;-70
2022/11/12 00:36:11;;;;;;;43.30;28.17;;;;;;;8.02;100.00;101959.91;5108796;28;20032;-70
2022/11/12 00:38:36;;;;;;;44.30;29.13;;;;;;;8.06;100.00;101956.16;5107555;28;20019;-70
2022/11/12 00:41:02;;;;;;;44.95;27.85;;;;;;;8.08;100.00;101948.91;5108842;28;20115;-70
2022/11/12 00:43:28;;;;;;;39.78;27.63;;;;;;;8.13;100.00;101939.69;5108750;28;20129;-71
2022/11/12 00:45:53;;;;;;;49.15;29.00;;;;;;;8.16;100.00;101936.03;5108999;28;20150;-71
2022/11/12 00:48:18;;;;;;;44.28;27.85;;;;;;;8.16;100.00;101942.22;5108205;28;20019;-70
2022/11/12 00:50:44;;;;;;;43.08;27.45;;;;;;;8.20;100.00;101940.25;5107047;28;20039;-70
2022/11/12 00:53:09;;;;;;;46.40;27.95;;;;;;;8.15;100.00;101935.16;5109113;28;20093;-70
2022/11/12 00:55:35;;;;;;;48.70;27.27;;;;;;;8.23;100.00;101953.50;5109580;28;20028;-71
2022/11/12 00:58:00;;;;;;;41.38;27.20;;;;;;;8.30;100.00;101949.56;5107867;28;20032;-71
2022/11/12 01:00:26;;;;;;;39.75;26.48;;;;;;;8.33;100.00;101954.75;5109667;28;20429;-71
2022/11/12 01:02:52;;;;;;;39.20;26.85;;;;;;;8.34;100.00;101935.94;5108763;28;20474;-71
2022/11/12 01:05:18;;;;;;;45.28;26.88;;;;;;;8.57;100.00;101937.38;5108738;28;20088;-70
2022/11/12 01:07:44;;;;;;;36.80;25.13;;;;;;;8.66;100.00;101935.09;5108525;28;20490;-71
2022/11/12 01:10:10;;;;;;;43.42;25.98;;;;;;;8.59;100.00;101932.81;5108883;28;20030;-71
2022/11/12 01:12:37;;;;;;;36.28;25.42;;;;;;;8.55;100.00;101928.59;5109919;28;20031;-71
2022/11/12 01:15:07;;;;;;;37.38;23.65;;;;;;;8.51;100.00;101927.00;5112022;28;20034;-71
2022/11/12 01:17:39;;;;;;;33.45;23.95;;;;;;;8.54;100.00;101917.03;5105873;28;20020;-73
2022/11/12 01:20:08;;;;;;;38.58;25.02;;;;;;;8.49;100.00;101918.22;5104041;28;20471;-70
2022/11/12 01:22:37;;;;;;;36.45;24.35;;;;;;;8.51;100.00;101917.19;5105877;28;20144;-70
2022/11/12 01:25:03;;;;;;;35.50;24.33;;;;;;;8.40;100.00;101906.22;5111700;28;20027;-71
2022/11/12 01:27:30;;;;;;;39.22;25.02;;;;;;;8.50;100.00;101922.63;5101606;28;20102;-71
2022/11/12 01:29:58;;;;;;;39.05;24.50;;;;;;;8.54;100.00;101937.53;5090497;28;20032;-71
2022/11/12 01:32:24;;;;;;;36.30;24.92;;;;;;;8.47;100.00;101917.44;5090507;28;20024;-72
2022/11/12 01:34:53;;;;;;;40.15;24.45;;;;;;;8.45;100.00;101922.03;5091513;28;20036;-72
2022/11/12 01:37:19;;;;;;;34.83;24.30;;;;;;;8.49;100.00;101939.63;5090223;28;20028;-72
2022/11/12 01:39:45;;;;;;;47.00;26.02;;;;;;;8.44;100.00;101939.84;5091912;28;20146;-71
2022/11/12 01:42:11;;;;;;;38.75;24.42;;;;;;;8.30;100.00;101910.34;5090253;28;20114;-71
2022/11/12 01:44:43;;;;;;;34.45;23.42;;;;;;;8.49;100.00;101959.22;5091187;28;20039;-71
2022/11/12 01:47:19;;;;;;;42.67;24.98;;;;;;;8.23;100.00;101908.06;5094910;28;20073;-71
2022/11/12 01:49:58;;;;;;;37.15;23.17;;;;;;;8.32;100.00;101926.28;5110094;28;20436;-72
2022/11/12 01:52:36;;;;;;;38.70;23.42;;;;;;;8.36;100.00;101919.84;5110877;28;20044;-71
2022/11/12 01:55:10;;;;;;;34.88;23.88;;;;;;;8.47;100.00;101933.47;5111892;28;20041;-71
2022/11/12 01:58:05;;;;;;;35.72;23.60;;;;;;;8.52;100.00;101937.63;5111092;28;20352;-66
2022/11/12 02:00:31;;;;;;;37.78;24.20;;;;;;;8.24;100.00;101891.06;5109251;28;20039;-68
2022/11/12 02:03:00;;;;;;;34.97;22.85;;;;;;;8.12;100.00;101864.94;5109936;28;20051;-65
2022/11/12 02:05:28;;;;;;;32.13;22.98;;;;;;;8.39;100.00;101907.16;5109542;28;20023;-67
2022/11/12 02:07:59;;;;;;;33.03;22.17;;;;;;;8.27;100.00;101886.44;5110980;28;20138;-65
2022/11/12 02:10:25;;;;;;;40.05;24.83;;;;;;;8.38;100.00;101912.56;5110865;28;20059;-66
2022/11/12 02:15:39;;;;;;;38.30;23.52;;;;;;;8.43;100.00;101910.53;5110719;28;20038;-66
2022/11/12 02:18:05;;;;;;;34.17;22.55;;;;;;;8.39;100.00;101900.97;5107969;28;20027;-65
2022/11/12 02:20:36;;;;;;;35.47;23.70;;;;;;;8.44;100.00;101906.91;5108449;28;20046;-67
2022/11/12 02:23:06;;;;;;;32.55;23.48;;;;;;;8.45;100.00;101911.31;5108648;28;20441;-65
2022/11/12 02:25:33;;;;;;;35.97;23.70;;;;;;;8.47;100.00;101910.28;5109276;28;20122;-67
2022/11/12 02:28:01;;;;;;;34.10;23.27;;;;;;;8.36;100.00;101880.59;5108925;28;20023;-66
2022/11/12 02:30:33;;;;;;;35.58;23.35;;;;;;;8.40;100.00;101890.19;5110418;28;20039;-66
2022/11/12 02:32:59;;;;;;;39.00;23.50;;;;;;;8.43;100.00;101894.50;5109004;28;20487;-67
2022/11/12 02:35:25;;;;;;;37.17;23.20;;;;;;;8.51;100.00;101897.59;5110505;28;20023;-66
2022/11/12 02:37:51;;;;;;;33.83;23.05;;;;;;;8.44;100.00;101889.06;5108761;28;20100;-65
2022/11/12 02:40:16;;;;;;;33.67;23.65;;;;;;;8.50;100.00;101909.25;5108816;28;20386;-66
2022/11/12 02:42:42;;;;;;;30.88;22.80;;;;;;;8.48;100.00;101912.00;5108846;28;20399;-65
2022/11/12 02:45:20;;;;;;;32.80;23.05;;;;;;;8.56;100.00;101917.81;5110629;28;20027;-66
2022/11/12 02:47:46;;;;;;;38.55;25.02;;;;;;;8.50;100.00;101904.78;5107784;28;20047;-66
2022/11/12 02:50:13;;;;;;;34.78;23.35;;;;;;;8.44;100.00;101885.50;5098740;28;20116;-64
2022/11/12 02:52:41;;;;;;;37.25;24.77;;;;;;;8.45;100.00;101889.94;5109054;28;20406;-65
2022/11/12 02:55:08;;;;;;;38.47;24.52;;;;;;;8.56;100.00;101898.22;5108526;28;20023;-64
2022/11/12 02:57:34;;;;;;;37.88;25.02;;;;;;;8.51;100.00;101894.91;5108322;28;20402;-65
2022/11/12 03:00:00;;;;;;;35.20;23.48;;;;;;;8.54;100.00;101900.09;5108748;28;20444;-65
2022/11/12 03:02:25;;;;;;;35.95;23.52;;;;;;;8.58;100.00;101907.03;5110413;28;20035;-65
2022/11/12 03:04:51;;;;;;;37.10;24.45;;;;;;;8.56;100.00;101900.91;5110019;28;20032;-65
2022/11/12 03:07:16;;;;;;;38.80;24.90;;;;;;;8.57;100.00;101905.28;5108551;28;20056;-65
2022/11/12 03:09:42;;;;;;;41.38;25.55;;;;;;;8.58;100.00;101901.69;5109271;28;20027;-65
2022/11/12 03:12:07;;;;;;;35.90;23.63;;;;;;;8.54;100.00;101897.44;5110333;28;20055;-65
2022/11/12 03:14:33;;;;;;;40.72;25.50;;;;;;;8.60;100.00;101905.13;5110624;28;20023;-65
2022/11/12 03:16:58;;;;;;;36.72;23.80;;;;;;;8.59;100.00;101903.41;5108821;28;20028;-65
2022/11/12 03:19:24;;;;;;;35.95;23.77;;;;;;;8.60;100.00;101913.16;5110490;28;20035;-66
2022/11/12 03:21:49;;;;;;;34.22;24.33;;;;;;;8.48;100.00;101898.63;5108172;28;20062;-65
2022/11/12 03:24:15;;;;;;;44.88;25.45;;;;;;;8.58;100.00;101907.03;5109061;28;20498;-71
2022/11/12 03:26:40;;;;;;;33.97;23.77;;;;;;;8.61;100.00;101912.22;5110072;28;20023;-71
2022/11/12 03:29:05;;;;;;;38.30;25.35;;;;;;;8.62;100.00;101909.47;5110413;28;20533;-71
2022/11/12 03:31:31;;;;;;;33.78;23.80;;;;;;;8.61;100.00;101912.22;5110216;28;20043;-71
2022/11/12 03:33:56;;;;;;;38.95;24.60;;;;;;;8.62;100.00;101916.63;5110454;28;20408;-71
2022/11/12 03:36:22;;;;;;;37.53;24.70;;;;;;;8.60;100.00;101915.81;5107926;28;20031;-71
2022/11/12 03:38:47;;;;;;;37.63;23.65;;;;;;;8.59;100.00;101914.97;5109868;28;20470;-70
2022/11/12 03:41:13;;;;;;;34.45;23.63;;;;;;;8.64;100.00;101922.75;5109841;28;20023;-70
2022/11/12 03:43:38;;;;;;;33.17;22.85;;;;;;;8.67;100.00;101918.09;5108711;28;20024;-69
2022/11/12 03:46:04;;;;;;;40.45;24.42;;;;;;;8.67;100.00;101918.09;5109589;28;20039;-71
2022/11/12 03:48:29;;;;;;;36.42;24.35;;;;;;;8.68;100.00;101924.31;5110032;28;20478;-70
2022/11/12 03:50:58;;;;;;;33.38;24.05;;;;;;;8.68;100.00;101927.00;5109676;28;20028;-71
2022/11/12 03:53:24;;;;;;;42.38;24.60;;;;;;;8.68;100.00;101925.16;5110065;28;20058;-70
2022/11/12 03:55:50;;;;;;;35.83;24.13;;;;;;;8.70;100.00;101930.41;5109772;28;20226;-70
2022/11/12 03:58:15;;;;;;;37.05;25.60;;;;;;;8.65;100.00;101929.81;5108267;28;20023;-71
2022/11/12 04:00:41;;;;;;;40.22;24.67;;;;;;;8.73;100.00;101935.59;5109921;28;20058;-70
2022/11/12 04:03:06;;;;;;;32.42;22.73;;;;;;;8.67;100.00;101928.78;5109717;28;20122;-71
2022/11/12 04:08:35;;;;;;;38.33;23.95;;;;;;;8.70;100.00;101947.34;5109730;28;20097;-70
2022/11/12 04:11:06;;;;;;;;;;;;;;;8.69;100.00;101942.94;5110701;28;20518;-70
2022/11/12 04:13:32;;;;;;;38.70;24.48;;;;;;;8.68;100.00;101929.66;5109798;28;20295;-65
2022/11/12 04:21:50;;;;;;;34.75;23.05;;;;;;;8.71;100.00;101927.66;5108960;28;20038;-65
2022/11/12 04:27:11;;;;;;;35.00;25.23;;;;;;;8.79;100.00;101916.56;5108925;28;20047;-65
2022/11/12 04:32:22;;;;;;;39.00;25.70;;;;;;;8.82;100.00;101892.31;5109660;28;20140;-65
2022/11/12 04:34:47;;;;;;;38.78;25.75;;;;;;;8.82;100.00;101889.63;5109499;28;20208;-65
2022/11/12 04:37:13;;;;;;;35.28;23.50;;;;;;;8.79;100.00;101900.50;5107884;28;20478;-66
2022/11/12 04:39:38;;;;;;;39.63;26.45;;;;;;;8.66;100.00;101888.75;5108929;28;20045;-66
2022/11/12 04:45:03;;;;;;;42.65;26.05;;;;;;;8.71;100.00;101903.59;5109248;28;20505;-66
2022/11/12 04:47:37;;;;;;;37.60;26.35;;;;;;;8.69;100.00;101893.94;5112146;28;20052;-66
2022/11/12 04:50:07;;;;;;;42.22;26.45;;;;;;;8.75;100.00;101909.66;5111216;28;20023;-66
2022/11/12 04:52:33;;;;;;;39.40;26.13;;;;;;;8.76;100.00;101906.00;5113484;27;20058;-66
2022/11/12 04:54:58;;;;;;;38.70;26.13;;;;;;;8.74;100.00;101906.09;5111908;28;20463;-66
2022/11/12 04:57:24;;;;;;;37.42;25.67;;;;;;;8.75;100.00;101905.16;5113084;28;20431;-66
2022/11/12 04:59:50;;;;;;;39.33;24.90;;;;;;;8.70;100.00;101892.97;5111069;28;20538;-67
2022/11/12 05:02:16;;;;;;;38.38;26.40;;;;;;;8.69;100.00;101893.94;5112160;28;20110;-66
2022/11/12 05:04:42;;;;;;;41.92;27.85;;;;;;;8.71;100.00;101900.06;5113040;28;20043;-66
2022/11/12 05:07:08;;;;;;;40.53;26.95;;;;;;;8.73;100.00;101908.84;5112659;28;20066;-66
2022/11/12 05:09:34;;;;;;;39.28;26.38;;;;;;;8.71;100.00;101908.09;5113117;28;20035;-66
2022/11/12 05:11:59;;;;;;;40.10;26.60;;;;;;;8.70;100.00;101901.00;5112846;28;20032;-66
2022/11/12 05:14:24;;;;;;;35.55;26.08;;;;;;;8.78;100.00;101904.13;5111254;28;20478;-66
2022/11/12 05:16:50;;;;;;;37.97;26.30;;;;;;;8.76;100.00;101898.88;5111183;28;20024;-67
2022/11/12 05:19:16;;;;;;;35.65;25.35;;;;;;;8.71;100.00;101886.69;5112327;28;20039;-66
2022/11/12 05:22:27;;;;;;;39.88;26.40;;;;;;;8.80;100.00;101903.09;5112491;28;20381;-66
2022/11/12 05:24:27;;;;;;;39.25;26.05;;;;;;;8.77;100.00;101891.72;5104780;28;20035;-66
2022/11/12 05:26:53;;;;;;;38.72;27.08;;;;;;;8.88;100.00;101897.31;5112273;28;20092;-66
2022/11/12 05:29:18;;;;;;;43.50;28.17;;;;;;;8.78;100.00;101888.06;5110739;28;20028;-66
2022/11/12 05:31:44;;;;;;;39.08;27.20;;;;;;;8.74;100.00;101894.56;5109940;28;20509;-66
2022/11/12 05:34:10;;;;;;;47.45;28.00;;;;;;;8.70;100.00;101882.28;5111200;28;20032;-66
2022/11/12 05:36:36;;;;;;;40.80;29.38;;;;;;;8.82;100.00;101894.97;5111451;28;20055;-66
2022/11/12 05:39:02;;;;;;;44.38;29.75;;;;;;;8.80;100.00;101896.88;5112083;28;20027;-66
2022/11/12 05:41:28;;;;;;;48.85;31.10;;;;;;;8.82;100.00;101905.69;5110220;28;20615;-66
2022/11/12 05:43:53;;;;;;;43.03;29.55;;;;;;;8.78;100.00;101904.97;5111678;28;20051;-65
2022/11/12 05:46:19;;;;;;;50.92;31.13;;;;;;;8.88;100.00;101926.75;5111371;28;20065;-65
2022/11/12 05:48:44;;;;;;;45.42;31.23;;;;;;;8.81;100.00;101923.53;5111932;28;20024;-65
2022/11/12 05:51:12;;;;;;;44.83;29.55;;;;;;;8.88;100.00;101937.47;5110638;28;20035;-65
2022/11/12 05:53:38;;;;;;;41.78;28.23;;;;;;;8.88;100.00;101937.47;5111973;28;20043;-65
2022/11/12 05:56:05;;;;;;;43.75;29.15;;;;;;;8.92;100.00;101928.31;5111920;28;20028;-65
2022/11/12 05:58:31;;;;;;;41.20;29.35;;;;;;;8.89;100.00;101923.13;5111166;28;20432;-65
2022/11/12 06:00:57;;;;;;;43.47;30.08;;;;;;;8.85;100.00;101916.22;5110500;28;20073;-65
2022/11/12 06:03:23;;;;;;;49.53;30.50;;;;;;;8.89;100.00;101909.75;5111274;28;20040;-65
2022/11/12 06:05:49;;;;;;;50.60;32.92;;;;;;;8.87;100.00;101919.69;5111469;28;20027;-66
2022/11/12 06:08:14;;;;;;;46.83;32.25;;;;;;;8.85;100.00;101917.09;5111568;28;20055;-65
2022/11/12 06:10:40;;;;;;;44.50;31.38;;;;;;;8.83;100.00;101916.31;5111482;28;20084;-65
2022/11/12 06:13:06;;;;;;;49.70;32.70;;;;;;;8.79;100.00;101916.56;5111693;28;20024;-71
2022/11/12 06:15:32;;;;;;;46.45;33.00;;;;;;;8.88;100.00;101935.66;5112289;28;20103;-72
2022/11/12 06:17:57;;;;;;;48.35;31.80;;;;;;;8.91;100.00;101942.63;5111937;28;20023;-72
2022/11/12 06:20:23;;;;;;;48.80;32.85;;;;;;;8.90;100.00;101933.72;5111769;28;20034;-71
2022/11/12 06:22:49;;;;;;;46.28;32.67;;;;;;;8.95;100.00;101936.16;5111668;28;20115;-71
2022/11/12 06:25:15;;;;;;;54.75;35.42;;;;;;;8.92;100.00;101936.31;5111857;28;20031;-71
2022/11/12 06:27:42;;;;;;;51.88;33.65;;;;;;;8.94;100.00;101942.47;5111359;28;20058;-71
2022/11/12 06:30:08;;;;;;;49.47;34.92;;;;;;;8.95;100.00;101938.84;5111839;28;20036;-72
2022/11/12 06:32:34;;;;;;;50.72;34.30;;;;;;;8.97;100.00;101947.66;5111958;28;20043;-71
2022/11/12 06:34:59;;;;;;;48.53;32.85;;;;;;;8.94;100.00;101940.63;5111563;28;20027;-72
2022/11/12 06:37:25;;;;;;;44.90;31.58;;;;;;;9.02;100.00;101948.25;5111319;27;20072;-65
2022/11/12 06:39:50;;;;;;;49.53;32.20;;;;;;;9.00;100.00;101940.31;5109455;28;20482;-65
2022/11/12 06:42:16;;;;;;;47.05;32.63;;;;;;;9.02;100.00;101940.22;5110515;28;20149;-65
2022/11/12 06:44:41;;;;;;;51.80;35.30;;;;;;;9.09;100.00;101950.50;5110821;28;20036;-65
2022/11/12 06:47:08;;;;;;;53.92;36.53;;;;;;;9.05;100.00;101938.25;5110552;28;20043;-66
2022/11/12 06:49:34;;;;;;;55.92;35.72;;;;;;;9.03;100.00;101936.63;5111281;28;20059;-65
2022/11/12 06:51:59;;;;;;;54.92;35.88;;;;;;;8.99;100.00;101932.34;5109048;28;20161;-65
2022/11/12 06:54:25;;;;;;;58.80;35.72;;;;;;;9.04;100.00;101941.00;5109129;28;20074;-65
2022/11/12 06:56:50;;;;;;;55.42;34.92;;;;;;;9.15;100.00;101957.31;5110144;27;20028;-66
2022/11/12 06:59:16;;;;;;;49.78;33.92;;;;;;;9.12;100.00;101954.81;5110253;28;20020;-65
2022/11/12 07:01:41;;;;;;;59.92;37.63;;;;;;;9.16;100.00;101951.88;5110538;28;20035;-65
2022/11/12 07:04:07;;;;;;;56.47;36.10;;;;;;;9.15;100.00;101947.50;5110875;28;20080;-65
2022/11/12 07:06:33;;;;;;;54.90;35.78;;;;;;;9.21;100.00;101946.28;5109200;28;20057;-65
2022/11/12 07:08:58;;;;;;;57.22;35.65;;;;;;;9.23;100.00;101965.81;5108700;28;20169;-65
2022/11/12 07:11:24;;;;;;;57.28;36.97;;;;;;;9.23;100.00;101965.81;5108764;28;20023;-65
2022/11/12 07:13:49;;;;;;;58.25;37.83;;;;;;;9.24;100.00;101956.81;5110209;28;20103;-66
2022/11/12 07:16:17;;;;;;;51.05;33.95;;;;;;;9.28;100.00;101944.97;5108885;28;20046;-65
2022/11/12 07:18:44;;;;;;;51.88;34.50;;;;;;;9.36;100.00;101963.28;5108800;28;20741;-65
2022/11/12 07:21:12;;;;;;;48.85;35.05;;;;;;;9.43;100.00;101960.19;5108601;28;20057;-65
2022/11/12 07:23:38;;;;;;;55.63;36.10;;;;;;;9.47;100.00;101958.16;5110530;28;20501;-65
2022/11/12 07:26:06;;;;;;;57.10;35.95;;;;;;;9.50;100.00;101968.72;5110529;28;20046;-65
2022/11/12 07:28:32;;;;;;;48.58;34.90;;;;;;;9.48;100.00;101958.09;5109572;28;20019;-65
2022/11/12 07:31:04;;;;;;;47.83;34.03;;;;;;;9.52;100.00;101965.03;5109738;28;20042;-65
2022/11/12 07:33:29;;;;;;;50.33;36.80;;;;;;;9.56;100.00;101966.56;5109854;28;20046;-65
2022/11/12 07:36:04;;;;;;;50.03;33.78;;;;;;;9.62;100.00;101968.03;5107841;28;20019;-65
2022/11/12 07:38:32;;;;;;;51.30;35.13;;;;;;;9.62;100.00;101978.72;5108373;28;20027;-65
2022/11/12 07:41:04;;;;;;;49.85;34.70;;;;;;;9.65;100.00;101973.19;5108509;28;20113;-66
2022/11/12 07:43:32;;;;;;;58.08;38.58;;;;;;;9.70;100.00;101979.16;5110007;28;20027;-65
2022/11/12 07:46:06;;;;;;;51.42;36.53;;;;;;;9.67;100.00;101972.16;5109820;28;20165;-65
2022/11/12 07:48:32;;;;;;;51.30;35.28;;;;;;;9.66;100.00;101962.41;5109609;28;20499;-65
2022/11/12 07:51:00;;;;;;;57.17;40.35;;;;;;;9.77;100.00;101988.56;5109501;28;20055;-65
2022/11/12 07:53:26;;;;;;;52.10;36.67;;;;;;;9.79;100.00;101990.22;5109717;28;20041;-65
2022/11/12 07:55:53;;;;;;;57.28;34.95;;;;;;;9.77;100.00;101994.78;5108184;28;20035;-65
2022/11/12 07:58:19;;;;;;;51.83;34.03;;;;;;;9.84;100.00;101995.31;5109368;28;20093;-64
2022/11/12 08:00:44;;;;;;;48.08;34.42;;;;;;;9.87;100.00;101997.81;5109778;28;20035;-66
2022/11/12 08:03:09;;;;;;;48.17;34.63;;;;;;;9.86;100.00;101988.88;5109604;28;20039;-66
2022/11/12 08:05:35;;;;;;;57.80;34.67;;;;;;;9.98;100.00;102004.28;5109939;28;20467;-66
2022/11/12 08:08:00;;;;;;;50.05;34.53;;;;;;;10.00;100.00;102004.19;5107658;28;20023;-65
2022/11/12 08:10:26;;;;;;;47.50;33.92;;;;;;;10.04;100.00;102001.22;5107396;28;20023;-65
2022/11/12 08:12:55;;;;;;;52.58;34.67;;;;;;;10.14;100.00;102010.50;5107382;28;20030;-65
2022/11/12 08:15:20;;;;;;;49.03;32.92;;;;;;;10.09;100.00;101991.13;5108719;28;20027;-65
2022/11/12 08:17:45;;;;;;;47.88;34.35;;;;;;;10.22;100.00;102002.84;5109206;28;20466;-65
2022/11/12 08:20:11;;;;;;;51.78;35.30;;;;;;;10.30;100.00;102011.31;5109112;28;20028;-66
2022/11/12 08:22:37;;;;;;;54.53;35.30;;;;;;;10.45;100.00;102023.78;5112924;28;20486;-65
2022/11/12 08:25:03;;;;;;;51.30;35.08;;;;;;;10.54;100.00;102020.53;5113255;28;20046;-66
2022/11/12 08:27:28;;;;;;;51.17;34.72;;;;;;;10.52;100.00;101998.31;5111543;28;20028;-64
2022/11/12 08:29:53;;;;;;;51.58;34.67;;;;;;;10.63;100.00;102000.34;5113333;28;20139;-65
2022/11/12 08:32:19;;;;;;;47.67;32.65;;;;;;;10.83;100.00;102019.63;5113446;28;20089;-65
2022/11/12 08:34:44;;;;;;;55.53;34.20;;;;;;;10.89;100.00;102026.44;5113192;28;20036;-65
2022/11/12 08:37:10;;;;;;;47.30;33.63;;;;;;;10.90;100.00;102020.97;5113003;28;20061;-66
2022/11/12 08:39:35;;;;;;;47.80;32.22;;;;;;;10.93;100.00;102026.16;5113582;28;20083;-65
2022/11/12 08:42:00;;;;;;;49.22;33.05;;;;;;;10.98;100.00;102023.19;5113070;28;20047;-66
2022/11/12 08:44:26;;;;;;;49.95;33.60;;;;;;;11.07;100.00;102020.75;5113214;28;20238;-65
2022/11/12 08:46:51;;;;;;;47.53;32.35;;;;;;;11.18;100.00;102034.41;5113357;28;20059;-65
2022/11/12 08:49:17;;;;;;;47.72;31.63;;;;;;;11.18;100.00;102029.03;5113105;28;20039;-65
2022/11/12 08:51:42;;;;;;;41.03;30.98;;;;;;;11.26;100.00;102034.75;5111371;28;20034;-66
2022/11/12 08:54:07;;;;;;;48.28;33.80;;;;;;;11.29;100.00;102039.94;5113691;28;20019;-72
2022/11/12 08:56:33;;;;;;;50.97;33.25;;;;;;;11.29;100.00;102028.34;5114310;28;20020;-72
2022/11/12 08:58:59;;;;;;;44.75;31.60;;;;;;;11.34;100.00;102037.84;5112867;28;20020;-72
2022/11/12 09:01:24;;;;;;;53.38;35.95;;;;;;;11.32;100.00;102037.06;5113823;28;20034;-72
2022/11/12 09:03:50;;;;;;;46.35;32.88;;;;;;;11.33;100.00;102036.13;5113147;28;20041;-72
2022/11/12 09:06:15;;;;;;;48.70;34.05;;;;;;;11.33;100.00;102035.25;5114360;28;20463;-73
2022/11/12 09:08:41;;;;;;;47.65;31.20;;;;;;;11.40;100.00;102047.31;5114224;28;20042;-72
2022/11/12 09:11:06;;;;;;;45.33;32.53;;;;;;;11.41;100.00;102049.91;5115212;28;20027;-72
2022/11/12 09:13:33;;;;;;;42.85;29.85;;;;;;;11.42;100.00;102054.31;5116468;28;20544;-72
2022/11/12 09:16:03;;;;;;;40.22;27.13;;;;;;;11.40;100.00;102040.16;5114998;28;20038;-73
2022/11/12 09:18:30;;;;;;;45.90;30.75;;;;;;;11.43;100.00;102048.00;5114909;28;20501;-73
2022/11/12 09:21:04;;;;;;;42.50;29.05;;;;;;;11.44;100.00;102040.78;5114382;28;20106;-73
2022/11/12 09:23:30;;;;;;;42.75;29.90;;;;;;;11.48;100.00;102042.31;5113461;28;20031;-72
2022/11/12 09:25:56;;;;;;;41.58;28.48;;;;;;;11.50;100.00;102049.34;5113188;28;20520;-73
2022/11/12 09:28:22;;;;;;;40.03;28.38;;;;;;;11.51;100.00;102052.88;5112661;28;20080;-73
2022/11/12 09:30:49;;;;;;;40.72;28.90;;;;;;;11.53;100.00;102061.69;5112180;28;20047;-72
2022/11/12 09:33:17;;;;;;;38.60;27.55;;;;;;;11.52;100.00;102060.84;5110428;28;20035;-73
2022/11/12 09:35:44;;;;;;;40.88;27.80;;;;;;;11.53;100.00;102059.03;5113362;28;20106;-72
2022/11/12 09:38:10;;;;;;;38.42;29.27;;;;;;;11.60;100.00;102067.56;5113565;28;20467;-72
2022/11/12 09:40:50;;;;;;;41.85;30.17;;;;;;;11.62;100.00;102060.28;5113224;28;20026;-72
2022/11/12 09:43:24;;;;;;;43.28;29.05;;;;;;;11.61;100.00;102055.84;5112869;28;20486;-72
2022/11/12 09:45:50;;;;;;;;;;;;;;;11.63;100.00;102056.63;5112667;28;20718;-72
2022/11/12 09:48:25;;;;;;;43.45;28.70;;;;;;;11.61;100.00;102043.28;5112453;28;19926;-73
2022/11/12 09:50:57;;;;;;;42.17;27.73;;;;;;;11.68;100.00;102058.06;5112248;28;20039;-72
2022/11/12 09:53:43;;;;;;;44.90;30.20;;;;;;;11.69;100.00;102048.16;5110786;28;20118;-72
2022/11/12 09:56:12;;;;;;;42.83;29.38;;;;;;;11.73;100.00;102049.72;5111118;28;20035;-71
2022/11/12 09:58:38;;;;;;;42.47;29.05;;;;;;;11.71;100.00;102044.44;5112616;28;20028;-72
2022/11/12 10:01:18;;;;;;;41.58;28.13;;;;;;;11.80;100.00;102043.81;5111001;28;20115;-73
2022/11/12 10:03:47;;;;;;;42.97;28.02;;;;;;;11.86;100.00;102053.31;5112605;28;20118;-73
2022/11/12 10:06:21;;;;;;;43.10;30.25;;;;;;;11.91;100.00;102045.81;5112275;28;20601;-72
2022/11/12 10:09:01;;;;;;;38.42;27.70;;;;;;;11.95;100.00;102042.81;5112468;28;20084;-72
2022/11/12 10:16:41;;;;;;;41.58;28.55;;;;;;;12.04;100.00;102044.91;5112252;28;20038;-71
2022/11/12 10:18:13;;;;;;;40.60;28.45;;;;;;;12.07;100.00;102051.91;5112514;28;20398;-72
2022/11/12 10:20:51;;;;;;;43.72;28.17;;;;;;;12.10;100.00;102047.19;5102399;28;20118;-72
2022/11/12 10:23:39;;;;;;;41.50;27.88;;;;;;;12.13;100.00;102056.88;5104489;28;20031;-66
2022/11/12 10:26:16;;;;;;;41.65;27.77;;;;;;;12.16;100.00;102060.19;5102495;28;20099;-72
2022/11/12 10:29:06;;;;;;;37.50;26.98;;;;;;;12.16;100.00;102051.28;5105133;28;20118;-72
2022/11/12 10:31:32;;;;;;;39.05;28.45;;;;;;;12.21;100.00;102052.69;5100637;28;20020;-71
2022/11/12 10:34:24;;;;;;;42.67;28.98;;;;;;;12.25;100.00;102048.00;5103095;28;20046;-71
2022/11/12 10:36:56;;;;;;;48.00;30.10;;;;;;;12.30;100.00;102044.00;5090408;28;20035;-71
2022/11/12 10:39:34;;;;;;;43.00;28.40;;;;;;;12.38;100.00;102040.81;5110536;28;20019;-71
2022/11/12 10:42:12;;;;;;;45.33;29.45;;;;;;;12.44;100.00;102045.75;5109413;28;20035;-72
2022/11/12 10:44:38;;;;;;;38.75;25.35;;;;;;;12.49;100.00;102040.94;5109758;28;20036;-72
2022/11/12 10:47:25;;;;;;;37.83;26.65;;;;;;;12.57;100.00;102035.88;5110519;28;20047;-72
2022/11/12 10:50:30;;;;;;;37.65;26.10;;;;;;;12.66;100.00;102030.72;5109247;28;20036;-71
2022/11/12 10:53:05;;;;;;;35.47;25.70;;;;;;;12.78;100.00;102026.31;5093712;28;20024;-71
2022/11/12 10:55:37;;;;;;;;;;;;;;;12.85;99.46;102036.56;5108039;28;20042;-72
2022/11/12 10:58:09;;;;;;;37.92;23.80;;;;;;;12.96;98.88;102047.44;5107339;28;19950;-72
2022/11/12 11:00:36;;;;;;;38.75;25.10;;;;;;;13.05;98.81;102043.25;5109228;28;20036;-71
2022/11/12 11:03:06;;;;;;;35.75;26.10;;;;;;;13.13;98.42;102039.03;5109549;28;20118;-71
2022/11/12 11:05:49;;;;;;;34.53;26.00;;;;;;;13.24;97.66;102039.16;5107157;28;20584;-72
2022/11/12 11:08:37;;;;;;;36.83;24.92;;;;;;;13.32;96.81;102034.06;5109734;28;20559;-71
2022/11/12 11:11:15;;;;;;;42.65;31.35;;;;;;;13.41;95.34;102043.31;5101377;28;20130;-72
2022/11/12 11:13:41;;;;;;;40.67;27.65;;;;;;;13.47;94.67;102045.56;5113065;28;20043;-72
2022/11/12 11:16:14;;;;;;;40.42;30.73;;;;;;;13.44;94.62;102029.63;5112059;28;20456;-73
2022/11/12 11:18:44;;;;;;;40.97;27.17;;;;;;;13.53;94.19;102020.88;5111526;28;20023;-66
2022/11/12 11:21:20;;;;;;;36.65;24.35;;;;;;;13.61;93.44;102040.06;5108808;28;20129;-66
2022/11/12 11:24:04;;;;;;;35.30;22.77;;;;;;;13.58;93.63;102026.81;5109211;28;20122;-66
2022/11/12 11:26:48;;;;;;;32.30;22.48;;;;;;;13.62;92.77;102034.56;5108680;28;20046;-66
2022/11/12 11:29:23;;;;;;;34.60;23.13;;;;;;;13.63;92.22;102030.88;5107545;28;20055;-66
2022/11/12 11:32:00;;;;;;;37.83;22.63;;;;;;;13.59;91.53;102023.13;5109367;28;20079;-66
2022/11/12 11:34:46;;;;;;;31.70;21.20;;;;;;;13.52;91.33;101992.19;5107053;28;20107;-66
2022/11/12 11:37:20;;;;;;;28.63;20.50;;;;;;;13.69;91.46;102011.56;5106687;28;20044;-65
2022/11/12 11:40:09;;;;;;;31.48;21.40;;;;;;;13.74;91.14;102005.81;5111371;28;20034;-71